Time;durP1;ratioP1;P1;durP2;ratioP2;P2;SDS_P1;SDS_P2;PMS_P1;PMS_P2;Temp;Humidity;BMP_temperature;BMP_pressure;BME280_temperature;BME280_humidity;BME280_pressure;Samples;Min_cycle;Max_cycle;Signal;HPM_P1;HPM_P2
2023/05/04 00:00:32;;;;;;;18.63;15.88;;;;;;;10.33;100.00;63063.78;5027216;28;20221;-74
2023/05/04 00:03:00;;;;;;;18.63;15.07;;;;;;;10.38;100.00;63068.94;5028194;28;20281;-75
2023/05/04 00:05:28;;;;;;;16.25;13.68;;;;;;;10.34;100.00;63061.75;5025784;28;20207;-74
2023/05/04 00:07:56;;;;;;;20.17;15.15;;;;;;;10.22;100.00;63052.38;5027929;28;20282;-74
2023/05/04 00:10:22;;;;;;;16.50;14.63;;;;;;;10.26;100.00;63059.09;5021196;28;20366;-74
2023/05/04 00:12:49;;;;;;;15.82;13.88;;;;;;;10.35;100.00;63070.91;5027236;28;20495;-76
2023/05/04 00:15:17;;;;;;;16.25;14.55;;;;;;;10.30;100.00;63057.63;5026806;28;20202;-74
2023/05/04 00:17:44;;;;;;;15.60;13.88;;;;;;;10.30;100.00;63060.16;5025311;28;20251;-74
2023/05/04 00:20:12;;;;;;;16.02;14.30;;;;;;;10.33;100.00;63065.81;5026694;28;20198;-74
2023/05/04 00:22:41;;;;;;;16.73;14.73;;;;;;;10.38;100.00;63068.94;5027638;28;20322;-74
2023/05/04 00:25:09;;;;;;;17.92;13.20;;;;;;;10.47;100.00;63080.78;5025726;28;20199;-75
2023/05/04 00:27:36;;;;;;;18.63;13.98;;;;;;;10.40;100.00;63071.03;5025049;28;20293;-74
2023/05/04 00:30:04;;;;;;;16.80;15.00;;;;;;;10.39;100.00;63069.44;5029255;28;20266;-74
2023/05/04 00:32:31;;;;;;;16.50;14.15;;;;;;;10.44;100.00;63072.09;5020685;28;20482;-74
2023/05/04 00:34:59;;;;;;;17.98;14.65;;;;;;;10.42;100.00;63070.53;5021760;28;20550;-74
2023/05/04 00:37:27;;;;;;;19.38;16.00;;;;;;;10.48;100.00;63078.78;5024898;28;20230;-75
2023/05/04 00:39:55;;;;;;;16.38;14.65;;;;;;;10.42;100.00;63073.06;5027428;28;20195;-74
2023/05/04 00:42:22;;;;;;;19.15;16.00;;;;;;;10.44;100.00;63077.69;5014390;28;20230;-75
2023/05/04 00:44:49;;;;;;;17.88;15.60;;;;;;;10.47;100.00;63077.75;5017587;28;20254;-74
2023/05/04 00:47:18;;;;;;;20.05;17.00;;;;;;;10.33;100.00;63068.34;5028517;28;20221;-74
2023/05/04 00:49:45;;;;;;;20.83;16.85;;;;;;;10.29;100.00;63066.75;5025824;28;20207;-74
2023/05/04 00:52:14;;;;;;;22.88;16.98;;;;;;;10.31;100.00;63061.19;5024709;28;20547;-74
2023/05/04 00:54:42;;;;;;;23.00;17.50;;;;;;;10.31;100.00;63056.09;5015749;28;20217;-75
2023/05/04 00:57:11;;;;;;;24.13;18.38;;;;;;;10.33;100.00;63066.31;5007567;28;20546;-74
2023/05/04 00:59:38;;;;;;;22.95;17.23;;;;;;;10.16;100.00;63046.16;5012095;28;20238;-74
2023/05/04 01:02:06;;;;;;;24.85;17.73;;;;;;;10.17;100.00;63051.78;5028501;28;20219;-75
2023/05/04 01:04:33;;;;;;;20.98;18.02;;;;;;;10.14;100.00;63046.66;5008118;28;20211;-74
2023/05/04 01:07:08;;;;;;;26.02;18.13;;;;;;;10.16;100.00;63046.16;5006276;28;20226;-74
2023/05/04 01:09:40;;;;;;;23.42;18.95;;;;;;;10.27;100.00;63057.56;5023184;28;20266;-74
2023/05/04 01:12:09;;;;;;;22.83;18.10;;;;;;;10.09;100.00;63040.97;5024515;28;20374;-74
2023/05/04 01:14:40;;;;;;;26.42;17.70;;;;;;;10.15;100.00;63050.22;5025769;28;20205;-74
2023/05/04 01:17:08;;;;;;;24.70;17.48;;;;;;;10.12;100.00;63041.53;5023575;28;20234;-74
2023/05/04 01:19:35;;;;;;;21.42;17.58;;;;;;;10.18;100.00;63050.78;5027443;28;20289;-74
2023/05/04 01:22:04;;;;;;;23.13;17.90;;;;;;;10.22;100.00;63052.38;5012270;28;20222;-75
2023/05/04 01:24:32;;;;;;;19.73;16.83;;;;;;;10.24;100.00;63057.00;5015447;28;20198;-74
2023/05/04 01:27:09;;;;;;;24.10;16.83;;;;;;;10.30;100.00;63060.66;5027358;28;20222;-74
2023/05/04 01:29:43;;;;;;;21.65;16.33;;;;;;;10.35;100.00;63065.31;5023532;28;20218;-76
2023/05/04 01:32:13;;;;;;;22.77;17.10;;;;;;;10.34;100.00;63062.25;5023307;28;20268;-73
2023/05/04 01:34:41;;;;;;;22.23;17.33;;;;;;;10.31;100.00;63061.72;5029791;28;20226;-76
2023/05/04 01:37:09;;;;;;;21.52;17.23;;;;;;;10.40;100.00;63073.03;5025178;28;20281;-75
2023/05/04 01:39:37;;;;;;;23.48;17.33;;;;;;;10.35;100.00;63067.88;5024162;28;20465;-75
2023/05/04 01:42:06;;;;;;;21.95;16.70;;;;;;;10.33;100.00;63063.78;5024844;28;20222;-74
2023/05/04 01:44:33;;;;;;;20.52;16.77;;;;;;;10.27;100.00;63057.03;5024411;28;20198;-75
2023/05/04 01:47:00;;;;;;;19.95;16.35;;;;;;;10.30;100.00;63057.63;5025730;28;20554;-75
2023/05/04 01:49:28;;;;;;;20.48;15.32;;;;;;;10.36;100.00;63066.88;5015616;28;20237;-75
2023/05/04 01:51:55;;;;;;;19.27;15.32;;;;;;;10.37;100.00;63067.91;5006953;28;20555;-74
2023/05/04 01:54:23;;;;;;;18.75;15.15;;;;;;;10.30;100.00;63063.22;5025430;28;20205;-74
2023/05/04 01:56:50;;;;;;;24.38;14.65;;;;;;;10.25;100.00;63060.06;5024212;28;20222;-76
2023/05/04 01:59:18;;;;;;;20.10;15.45;;;;;;;10.20;100.00;63054.88;5014344;28;20265;-74
2023/05/04 02:01:45;;;;;;;19.58;16.33;;;;;;;10.18;100.00;63053.34;5025930;28;20250;-74
2023/05/04 02:04:12;;;;;;;23.25;17.23;;;;;;;10.25;100.00;63060.06;5027734;28;20190;-74
2023/05/04 02:06:39;;;;;;;24.02;16.35;;;;;;;10.22;100.00;63054.94;5016481;28;20561;-74
2023/05/04 02:09:06;;;;;;;20.23;15.13;;;;;;;10.13;100.00;63042.56;5019279;28;20213;-75
2023/05/04 02:11:34;;;;;;;19.15;14.63;;;;;;;10.18;100.00;63050.78;5024677;28;20244;-75
2023/05/04 02:14:02;;;;;;;18.02;14.05;;;;;;;10.21;100.00;63051.38;5025201;28;20310;-74
2023/05/04 02:16:30;;;;;;;19.35;14.10;;;;;;;10.16;100.00;63045.66;5020836;28;20430;-74
2023/05/04 02:18:58;;;;;;;16.23;13.45;;;;;;;10.22;100.00;63054.94;5022640;28;20223;-74
2023/05/04 02:21:29;;;;;;;16.48;13.50;;;;;;;10.20;100.00;63052.88;5024503;28;20241;-74
2023/05/04 02:23:58;;;;;;;15.80;12.50;;;;;;;10.25;100.00;63055.50;5022413;28;20274;-74
2023/05/04 02:26:25;;;;;;;16.40;12.43;;;;;;;10.16;100.00;63048.72;5019349;28;20298;-74
2023/05/04 02:28:54;;;;;;;14.13;12.13;;;;;;;10.06;100.00;63035.81;5025280;28;20198;-74
2023/05/04 02:31:21;;;;;;;16.48;12.88;;;;;;;10.08;100.00;63042.44;5027238;28;20241;-75
2023/05/04 02:33:48;;;;;;;15.98;12.77;;;;;;;9.96;100.00;63025.47;5026367;28;20198;-74
2023/05/04 02:36:15;;;;;;;15.43;11.32;;;;;;;9.89;100.00;63018.22;5010205;28;20231;-75
2023/05/04 02:38:42;;;;;;;13.95;10.77;;;;;;;9.86;100.00;63015.13;5023717;28;20223;-75
2023/05/04 02:41:09;;;;;;;11.35;10.10;;;;;;;9.78;100.00;63006.34;5026517;28;20229;-75
2023/05/04 02:43:36;;;;;;;10.88;9.32;;;;;;;9.81;100.00;63012.50;5015385;28;20194;-76
2023/05/04 02:46:05;;;;;;;11.93;9.77;;;;;;;9.73;100.00;63001.69;5024969;28;20238;-75
2023/05/04 02:48:32;;;;;;;11.23;10.07;;;;;;;9.72;100.00;63000.66;5024891;28;20266;-74
2023/05/04 02:50:59;;;;;;;11.43;9.55;;;;;;;9.75;100.00;63003.75;5021658;28;20205;-76
2023/05/04 02:53:26;;;;;;;10.55;8.30;;;;;;;9.67;100.00;62994.94;5007935;28;20205;-76
2023/05/04 02:55:53;;;;;;;13.10;9.13;;;;;;;9.64;100.00;62994.41;5011536;28;20240;-76
2023/05/04 02:58:21;;;;;;;10.27;8.70;;;;;;;9.53;100.00;62977.94;5025371;28;20234;-75
2023/05/04 03:00:53;;;;;;;12.45;8.65;;;;;;;9.53;100.00;62983.53;5022517;28;20233;-75
2023/05/04 03:03:21;;;;;;;10.27;8.32;;;;;;;9.59;100.00;62984.66;5011503;28;20207;-75
2023/05/04 03:05:48;;;;;;;9.70;8.73;;;;;;;9.54;100.00;62984.06;5004285;28;20207;-74
2023/05/04 03:08:16;;;;;;;8.70;7.50;;;;;;;9.67;100.00;62995.47;5004507;28;20272;-76
2023/05/04 03:10:43;;;;;;;9.23;8.18;;;;;;;9.76;100.00;63001.72;5006725;28;20230;-74
2023/05/04 03:13:10;;;;;;;8.95;8.07;;;;;;;9.72;100.00;63000.66;5008921;28;21165;-74
2023/05/04 03:15:37;;;;;;;8.27;7.20;;;;;;;9.76;100.00;63007.34;5023540;28;20391;-75
2023/05/04 03:18:04;;;;;;;9.63;7.85;;;;;;;9.82;100.00;63010.47;5024469;28;20214;-75
2023/05/04 03:20:33;;;;;;;8.05;7.25;;;;;;;9.72;100.00;63000.13;5022118;28;20437;-74
2023/05/04 03:23:00;;;;;;;9.95;7.53;;;;;;;9.63;100.00;62993.38;5023974;28;20219;-75
2023/05/04 03:25:28;;;;;;;8.98;7.78;;;;;;;9.51;100.00;62978.94;5022989;28;20422;-75
2023/05/04 03:27:56;;;;;;;9.13;7.07;;;;;;;9.37;100.00;62961.91;5022970;28;20282;-74
2023/05/04 03:30:23;;;;;;;8.10;7.30;;;;;;;9.26;100.00;62950.53;5020433;28;20203;-74
2023/05/04 03:32:50;;;;;;;8.35;7.55;;;;;;;9.22;100.00;62946.41;5025399;28;20229;-75
2023/05/04 03:35:17;;;;;;;10.52;7.18;;;;;;;9.23;100.00;62950.00;5022510;28;20207;-75
2023/05/04 03:37:46;;;;;;;9.25;7.78;;;;;;;9.13;100.00;62945.25;5017416;28;20457;-75
2023/05/04 03:40:13;;;;;;;10.55;7.63;;;;;;;9.05;100.00;62931.38;5022052;28;20227;-75
2023/05/04 03:42:40;;;;;;;10.93;8.63;;;;;;;9.11;100.00;62940.13;5019923;28;20234;-75
2023/05/04 03:45:09;;;;;;;10.80;8.48;;;;;;;9.11;100.00;62940.63;5021238;28;20259;-78
2023/05/04 03:47:36;;;;;;;8.63;7.72;;;;;;;9.17;100.00;62941.25;5022343;28;20388;-75
2023/05/04 03:50:04;;;;;;;13.88;8.90;;;;;;;9.14;100.00;62943.22;5003927;28;20504;-75
2023/05/04 03:52:31;;;;;;;9.85;8.27;;;;;;;9.25;100.00;62950.03;5025268;28;20229;-75
2023/05/04 03:54:59;;;;;;;8.68;7.30;;;;;;;9.22;100.00;62952.00;5024718;28;20207;-76
2023/05/04 03:57:27;;;;;;;11.63;8.18;;;;;;;9.14;100.00;62946.28;5020603;28;20523;-77
2023/05/04 03:59:54;;;;;;;9.85;7.47;;;;;;;9.18;100.00;62944.81;5025582;28;20286;-77
2023/05/04 04:02:21;;;;;;;9.88;7.50;;;;;;;9.37;100.00;62961.91;5024996;28;20337;-77
2023/05/04 04:04:48;;;;;;;8.25;7.43;;;;;;;9.46;100.00;62970.72;5028668;28;20202;-77
2023/05/04 04:07:15;;;;;;;7.68;6.80;;;;;;;9.53;100.00;62977.94;5021726;28;20281;-77
2023/05/04 04:09:42;;;;;;;7.78;7.03;;;;;;;9.45;100.00;62972.72;5024627;28;20199;-77
2023/05/04 04:12:11;;;;;;;7.82;6.95;;;;;;;9.58;100.00;62986.16;5022607;28;20222;-77
2023/05/04 04:14:38;;;;;;;8.80;7.20;;;;;;;9.71;100.00;62999.09;5008940;28;20231;-77
2023/05/04 04:17:05;;;;;;;9.38;7.43;;;;;;;9.78;100.00;63011.94;5021910;28;20229;-76
2023/05/04 04:19:32;;;;;;;9.02;6.85;;;;;;;9.86;100.00;63012.06;5023954;28;20302;-77
2023/05/04 04:21:59;;;;;;;6.30;5.68;;;;;;;9.89;100.00;63017.69;5021768;28;20429;-77
2023/05/04 04:24:27;;;;;;;6.28;5.68;;;;;;;9.78;100.00;63006.34;5028423;28;20510;-76
2023/05/04 04:26:53;;;;;;;6.57;5.68;;;;;;;9.82;100.00;63010.47;5023372;28;20286;-76
2023/05/04 04:29:23;;;;;;;6.20;5.70;;;;;;;9.77;100.00;63010.38;5016167;28;20209;-76
2023/05/04 04:31:50;;;;;;;6.45;5.95;;;;;;;9.65;100.00;62993.41;5030254;28;20230;-76
2023/05/04 04:34:17;;;;;;;6.40;5.75;;;;;;;9.55;100.00;62977.97;5021193;28;20278;-78
2023/05/04 04:36:45;;;;;;;6.57;5.97;;;;;;;9.48;100.00;62975.81;5026394;28;20241;-77
2023/05/04 04:39:11;;;;;;;5.63;5.22;;;;;;;9.53;100.00;62983.53;5025348;28;20228;-77
2023/05/04 04:41:39;;;;;;;8.25;5.40;;;;;;;9.43;100.00;62975.75;5009020;28;20291;-78
2023/05/04 04:44:06;;;;;;;6.47;5.88;;;;;;;9.38;100.00;62968.03;5019508;28;20218;-78
2023/05/04 04:46:34;;;;;;;5.93;5.07;;;;;;;9.36;100.00;62960.88;5028389;28;20218;-78
2023/05/04 04:49:01;;;;;;;5.93;5.35;;;;;;;9.40;100.00;62967.56;5034635;28;20203;-80
2023/05/04 04:51:29;;;;;;;4.70;4.30;;;;;;;9.43;100.00;62967.59;5020230;28;20223;-80
2023/05/04 04:53:56;;;;;;;7.10;5.53;;;;;;;9.41;100.00;62968.06;5017255;28;20199;-79
2023/05/04 04:56:23;;;;;;;6.45;5.60;;;;;;;9.42;100.00;62972.19;5029158;28;20541;-78
2023/05/04 04:58:51;;;;;;;6.38;5.72;;;;;;;9.40;100.00;62965.03;5026430;28;20238;-79
2023/05/04 05:01:18;;;;;;;7.93;6.22;;;;;;;9.48;100.00;62975.31;5010481;28;20215;-79
2023/05/04 05:03:47;;;;;;;6.78;6.03;;;;;;;9.44;100.00;62974.22;5025911;28;20212;-78
2023/05/04 05:06:15;;;;;;;7.03;5.38;;;;;;;9.37;100.00;62961.91;5027873;28;20229;-79
2023/05/04 05:08:42;;;;;;;7.75;6.57;;;;;;;9.38;100.00;62962.44;5029150;28;20226;-79
2023/05/04 05:11:10;;;;;;;6.82;6.13;;;;;;;9.44;100.00;62973.72;5029380;28;20400;-79
2023/05/04 05:13:37;;;;;;;8.85;5.55;;;;;;;9.41;100.00;62968.06;5027729;28;20202;-80
2023/05/04 05:16:05;;;;;;;9.70;6.95;;;;;;;9.31;100.00;62960.78;5029679;28;20237;-80
2023/05/04 05:18:32;;;;;;;11.20;9.20;;;;;;;9.27;100.00;62952.09;5028714;28;20226;-78
2023/05/04 05:21:01;;;;;;;10.57;8.27;;;;;;;9.26;100.00;62953.09;5009137;28;20199;-79
2023/05/04 05:23:28;;;;;;;10.13;7.43;;;;;;;9.31;100.00;62955.72;5009978;28;20263;-79
2023/05/04 05:25:55;;;;;;;9.30;7.28;;;;;;;9.01;100.00;62929.78;5011323;28;20206;-80
2023/05/04 05:28:22;;;;;;;10.68;6.97;;;;;;;9.40;100.00;62972.66;5009631;28;20208;-80
2023/05/04 05:30:50;;;;;;;8.43;6.80;;;;;;;9.36;100.00;62960.88;5008612;28;20196;-79
2023/05/04 05:33:18;;;;;;;12.20;7.03;;;;;;;9.43;100.00;62970.66;5008154;28;20209;-77
2023/05/04 05:35:45;;;;;;;9.63;7.43;;;;;;;9.42;100.00;62969.63;5009098;28;20218;-78
2023/05/04 05:38:15;;;;;;;7.78;6.95;;;;;;;9.45;100.00;62972.22;5008012;28;20226;-77
2023/05/04 05:40:42;;;;;;;9.77;7.03;;;;;;;9.44;100.00;62974.22;5008501;28;20229;-77
2023/05/04 05:43:09;;;;;;;10.55;6.95;;;;;;;9.55;100.00;62985.09;5008342;28;20215;-77
2023/05/04 05:45:37;;;;;;;11.60;8.02;;;;;;;9.66;100.00;62991.38;5005348;28;20243;-78
2023/05/04 05:48:05;;;;;;;12.48;8.98;;;;;;;9.80;100.00;63005.88;5017769;28;20428;-79
2023/05/04 05:50:32;;;;;;;10.25;8.00;;;;;;;10.07;100.00;63033.78;5026950;28;20201;-77
2023/05/04 05:52:59;;;;;;;13.93;9.23;;;;;;;10.08;100.00;63037.91;5025612;28;20295;-78
2023/05/04 05:55:27;;;;;;;10.23;8.73;;;;;;;10.31;100.00;63063.72;5028495;28;20206;-78
2023/05/04 05:57:54;;;;;;;9.68;8.05;;;;;;;10.52;100.00;63084.94;5025674;28;20411;-78
2023/05/04 06:00:23;;;;;;;11.27;8.70;;;;;;;10.64;100.00;63094.81;5027270;28;20230;-76
2023/05/04 06:02:50;;;;;;;12.20;8.88;;;;;;;10.96;100.00;63130.50;5028252;28;20222;-77
2023/05/04 06:05:17;;;;;;;10.63;7.57;;;;;;;10.83;100.00;63114.47;5027956;28;20226;-77
2023/05/04 06:07:44;;;;;;;9.38;7.25;;;;;;;10.99;100.00;63131.06;5027344;28;20539;-77
2023/05/04 06:10:11;;;;;;;7.40;6.45;;;;;;;11.01;100.00;63133.13;5027766;28;20270;-77
2023/05/04 06:12:40;;;;;;;6.43;5.82;;;;;;;10.96;100.00;63128.47;5025759;28;20238;-77
2023/05/04 06:15:08;;;;;;;9.25;6.45;;;;;;;11.14;100.00;63147.09;5026169;28;20201;-78
2023/05/04 06:17:36;;;;;;;6.05;5.10;;;;;;;11.14;100.00;63144.56;5028100;28;20231;-77
2023/05/04 06:20:02;;;;;;;6.80;6.10;;;;;;;11.31;100.00;63161.63;5026805;28;20537;-78
2023/05/04 06:22:30;;;;;;;5.70;5.20;;;;;;;11.40;100.00;63170.97;5026950;28;20269;-77
2023/05/04 06:24:57;;;;;;;5.25;4.85;;;;;;;11.36;100.00;63169.88;5027723;28;20206;-77
2023/05/04 06:27:27;;;;;;;5.07;4.75;;;;;;;11.24;100.00;63154.38;5025413;28;20226;-78
2023/05/04 06:29:56;;;;;;;6.10;5.53;;;;;;;10.97;100.00;63124.41;5025534;28;20434;-78
2023/05/04 06:32:23;;;;;;;6.10;5.50;;;;;;;11.27;100.00;63163.09;5026609;28;20523;-77
2023/05/04 06:34:52;;;;;;;7.63;6.82;;;;;;;11.51;100.00;63185.41;5026616;28;20195;-77
2023/05/04 06:37:19;;;;;;;7.75;6.30;;;;;;;11.57;100.00;63191.13;5025834;28;20218;-77
2023/05/04 06:39:46;;;;;;;6.90;5.93;;;;;;;11.56;100.00;63190.09;5026981;28;20439;-77
2023/05/04 06:42:14;;;;;;;8.18;6.10;;;;;;;11.58;100.00;63197.25;5027426;28;20218;-78
2023/05/04 06:44:41;;;;;;;5.78;5.25;;;;;;;11.79;100.00;63211.38;5025924;28;20205;-77
2023/05/04 06:47:11;;;;;;;5.90;5.30;;;;;;;11.87;100.00;63227.34;5028826;28;20269;-78
2023/05/04 06:49:38;;;;;;;5.70;5.15;;;;;;;12.02;100.00;63240.31;5025983;28;20499;-77
2023/05/04 06:52:05;;;;;;;5.15;4.75;;;;;;;12.09;100.00;63247.59;5024567;28;20222;-76
2023/05/04 06:54:33;;;;;;;8.77;7.80;;;;;;;11.84;100.00;63219.09;5025786;28;20225;-78
2023/05/04 06:57:02;;;;;;;5.50;5.10;;;;;;;11.56;100.00;63190.59;5025578;28;20222;-76
2023/05/04 06:59:29;;;;;;;5.65;5.15;;;;;;;11.34;100.00;63167.81;5025976;28;20230;-77
2023/05/04 07:01:55;;;;;;;5.75;5.25;;;;;;;11.40;100.00;63179.13;5028825;28;20403;-77
2023/05/04 07:04:24;;;;;;;5.50;5.10;;;;;;;11.45;100.00;63179.22;5025197;28;20258;-76
2023/05/04 07:06:52;;;;;;;5.53;5.13;;;;;;;11.31;100.00;63169.81;5024446;28;20234;-75
2023/05/04 07:09:20;;;;;;;6.07;5.57;;;;;;;11.24;100.00;63160.00;5025025;28;20202;-77
2023/05/04 07:11:48;;;;;;;7.22;5.85;;;;;;;11.18;100.00;63148.19;5023995;28;20214;-77
2023/05/04 07:14:15;;;;;;;6.32;5.72;;;;;;;10.86;100.00;63125.75;5025931;28;20230;-77
2023/05/04 07:16:42;;;;;;;6.35;5.55;;;;;;;10.91;100.00;63120.22;5029967;28;20253;-77
2023/05/04 07:19:09;;;;;;;5.78;5.25;;;;;;;10.94;100.00;63123.34;5018767;28;20226;-76
2023/05/04 07:21:38;;;;;;;5.85;5.28;;;;;;;10.81;100.00;63110.38;5024124;28;20229;-76
2023/05/04 07:24:06;;;;;;;6.53;5.93;;;;;;;10.75;100.00;63106.22;5028675;28;20226;-75
2023/05/04 07:26:34;;;;;;;6.78;6.05;;;;;;;10.85;100.00;63116.56;5025176;28;20226;-77
2023/05/04 07:29:02;;;;;;;7.72;6.45;;;;;;;10.70;100.00;63101.03;5024909;28;20206;-76
2023/05/04 07:31:29;;;;;;;6.28;5.55;;;;;;;10.64;100.00;63094.81;5025891;28;20222;-76
2023/05/04 07:33:56;;;;;;;6.25;5.65;;;;;;;10.72;100.00;63100.53;5028403;28;20212;-76
2023/05/04 07:36:25;;;;;;;7.15;6.53;;;;;;;10.80;100.00;63119.56;5024441;28;20265;-76
2023/05/04 07:38:57;;;;;;;7.65;6.50;;;;;;;10.95;100.00;63124.38;5025610;28;20406;-76
2023/05/04 07:41:24;;;;;;;7.07;6.00;;;;;;;10.86;100.00;63117.59;5025671;28;20431;-75
2023/05/04 07:43:51;;;;;;;6.95;6.28;;;;;;;10.89;100.00;63123.25;5026708;28;20222;-76
2023/05/04 07:46:18;;;;;;;7.38;6.28;;;;;;;10.96;100.00;63128.47;5024299;28;20241;-75
2023/05/04 07:48:45;;;;;;;6.10;5.70;;;;;;;10.95;100.00;63124.88;5013061;28;20211;-75
2023/05/04 07:51:15;;;;;;;6.78;6.07;;;;;;;10.94;100.00;63126.38;5010343;28;20223;-75
2023/05/04 07:53:42;;;;;;;8.30;6.38;;;;;;;10.88;100.00;63122.22;5008687;28;20195;-75
2023/05/04 07:56:12;;;;;;;7.55;6.68;;;;;;;10.80;100.00;63109.38;5009737;28;20261;-75
2023/05/04 07:58:40;;;;;;;6.78;6.18;;;;;;;10.85;100.00;63116.56;5008825;28;20270;-76
2023/05/04 08:01:07;;;;;;;7.45;6.07;;;;;;;10.89;100.00;63121.22;5013481;28;20262;-75
2023/05/04 08:03:34;;;;;;;6.95;6.28;;;;;;;11.05;100.00;63135.22;5008371;28;20201;-77
2023/05/04 08:06:01;;;;;;;5.93;5.50;;;;;;;11.21;100.00;63153.84;5008148;28;20230;-76
2023/05/04 08:08:28;;;;;;;5.93;5.43;;;;;;;11.17;100.00;63150.22;5009170;28;20574;-75
2023/05/04 08:10:55;;;;;;;6.75;6.03;;;;;;;11.27;100.00;63162.59;5008614;28;20247;-75
2023/05/04 08:13:24;;;;;;;6.47;5.88;;;;;;;11.08;100.00;63135.28;5008702;28;20207;-76
2023/05/04 08:15:51;;;;;;;6.13;5.53;;;;;;;11.03;100.00;63135.19;5009648;28;20380;-75
2023/05/04 08:18:19;;;;;;;5.78;5.32;;;;;;;10.96;100.00;63135.59;5014240;28;20368;-76
2023/05/04 08:20:46;;;;;;;6.28;5.57;;;;;;;10.94;100.00;63125.88;5007463;28;20303;-75
2023/05/04 08:23:14;;;;;;;10.70;6.15;;;;;;;11.10;100.00;63142.44;5008180;28;20250;-75
2023/05/04 08:25:42;;;;;;;5.82;5.32;;;;;;;11.12;100.00;63144.50;5010473;28;20210;-75
2023/05/04 08:28:09;;;;;;;6.30;5.72;;;;;;;11.10;100.00;63142.44;5009679;28;20225;-75
2023/05/04 08:30:37;;;;;;;6.10;5.60;;;;;;;11.10;100.00;63139.88;5012719;28;20199;-75
2023/05/04 08:33:04;;;;;;;6.25;5.65;;;;;;;11.14;100.00;63149.13;5010692;28;20224;-75
2023/05/04 08:35:31;;;;;;;6.70;6.10;;;;;;;11.34;100.00;63169.84;5011058;28;20195;-75
2023/05/04 08:38:00;;;;;;;6.40;5.90;;;;;;;11.60;100.00;63197.31;5011898;28;20406;-75
2023/05/04 08:40:27;;;;;;;6.53;5.93;;;;;;;11.52;100.00;63191.56;5011552;28;20569;-77
2023/05/04 08:42:54;;;;;;;12.15;9.77;;;;;;;11.77;100.00;63208.81;5011962;28;20284;-76
2023/05/04 08:45:22;;;;;;;5.43;4.95;;;;;;;11.98;100.00;63233.63;5010777;28;20215;-76
2023/05/04 08:47:51;;;;;;;5.53;5.03;;;;;;;12.24;100.00;63265.69;5016000;28;20219;-75
2023/05/04 08:50:18;;;;;;;47.67;28.85;;;;;;;12.42;100.00;63281.78;5032510;28;20214;-76
2023/05/04 08:52:46;;;;;;;16.60;10.27;;;;;;;12.70;100.00;63310.81;5030926;28;20221;-75
2023/05/04 08:55:15;;;;;;;6.57;5.18;;;;;;;12.96;100.00;63337.25;5030207;28;20209;-75
2023/05/04 08:57:44;;;;;;;5.93;5.43;;;;;;;13.35;100.00;63372.63;5027826;28;20289;-76
2023/05/04 09:00:16;;;;;;;5.80;5.30;;;;;;;13.64;100.00;63405.28;5026277;28;20227;-75
2023/05/04 09:02:45;;;;;;;8.77;6.38;;;;;;;13.49;100.00;63389.19;5027080;28;20241;-77
2023/05/04 09:05:13;;;;;;;6.05;5.53;;;;;;;13.59;100.00;63397.53;5028847;28;20208;-75
2023/05/04 09:07:40;;;;;;;6.70;6.10;;;;;;;13.57;100.00;63395.44;5025964;28;20222;-76
2023/05/04 09:10:09;;;;;;;6.72;6.13;;;;;;;13.73;100.00;63412.06;5026516;28;20202;-75
2023/05/04 09:12:37;;;;;;;7.55;5.45;;;;;;;13.79;100.00;63420.31;5027386;28;20231;-75
2023/05/04 09:15:15;;;;;;;6.40;5.88;;;;;;;13.63;100.00;63404.22;5025502;28;20218;-75
2023/05/04 09:17:43;;;;;;;5.72;5.32;;;;;;;13.66;100.00;63407.34;5026470;28;20233;-74
2023/05/04 09:20:12;;;;;;;6.43;5.93;;;;;;;13.65;100.00;63403.25;5029204;28;20226;-75
2023/05/04 09:22:40;;;;;;;9.65;7.22;;;;;;;13.48;100.00;63388.16;5025129;28;20225;-75
2023/05/04 09:25:10;;;;;;;7.55;6.70;;;;;;;13.40;100.00;63382.41;5025446;28;20229;-75
2023/05/04 09:27:38;;;;;;;6.82;6.20;;;;;;;13.33;100.00;63373.09;5026940;28;20234;-74
2023/05/04 09:30:07;;;;;;;7.00;6.30;;;;;;;13.28;100.00;63365.38;5026109;28;20198;-75
2023/05/04 09:32:44;;;;;;;8.20;7.25;;;;;;;13.28;100.00;63369.97;5025938;28;20413;-75
2023/05/04 09:35:12;;;;;;;8.13;6.53;;;;;;;13.22;100.00;63366.31;5025585;28;20190;-76
2023/05/04 09:37:45;;;;;;;7.40;6.40;;;;;;;13.03;100.00;63344.03;5025861;28;20226;-76
2023/05/04 09:40:13;;;;;;;9.68;7.97;;;;;;;12.47;100.00;63278.78;5025290;28;20214;-75
2023/05/04 09:42:41;;;;;;;8.30;7.40;;;;;;;12.10;100.00;63243.50;5025500;28;20591;-76
2023/05/04 09:45:09;;;;;;;10.57;7.95;;;;;;;12.19;100.00;63255.38;5026092;28;20447;-75
2023/05/04 09:47:38;;;;;;;8.90;7.53;;;;;;;12.40;100.00;63277.16;5025860;28;20467;-75
2023/05/04 09:50:13;;;;;;;8.85;7.95;;;;;;;12.57;100.00;63294.25;5025162;28;20198;-75
2023/05/04 09:52:41;;;;;;;8.82;7.93;;;;;;;12.58;100.00;63295.81;5027254;28;20214;-74
2023/05/04 09:55:12;;;;;;;11.40;9.40;;;;;;;12.48;100.00;63288.00;5025491;28;20445;-75
2023/05/04 09:57:41;;;;;;;17.20;9.45;;;;;;;12.67;100.00;63307.69;5025483;28;20227;-75
2023/05/04 10:00:11;;;;;;;11.13;8.63;;;;;;;12.71;100.00;63311.34;5027696;28;20218;-75
2023/05/04 10:02:39;;;;;;;10.73;9.02;;;;;;;12.94;100.00;63335.19;5025084;28;20214;-73
2023/05/04 10:05:08;;;;;;;12.90;9.57;;;;;;;12.61;100.00;63296.38;5025716;28;20226;-75
2023/05/04 10:07:35;;;;;;;13.60;10.27;;;;;;;12.73;100.00;63313.91;5026230;28;20218;-75
2023/05/04 10:10:02;;;;;;;9.85;8.63;;;;;;;12.95;100.00;63336.22;5024581;28;20238;-74
2023/05/04 10:12:31;;;;;;;12.52;9.05;;;;;;;13.11;100.00;63352.31;5025784;28;20235;-75
2023/05/04 10:14:58;;;;;;;8.93;7.93;;;;;;;13.04;100.00;63340.47;5026915;28;20538;-75
2023/05/04 10:17:38;;;;;;;9.25;7.57;;;;;;;13.01;100.00;63339.38;5024663;28;20261;-74
2023/05/04 10:20:17;;;;;;;8.30;7.38;;;;;;;12.99;100.00;63339.84;5023587;28;20444;-75
2023/05/04 10:23:14;;;;;;;8.73;7.80;;;;;;;12.94;100.00;63335.19;5025274;28;20470;-74
2023/05/04 10:26:08;;;;;;;8.32;7.45;;;;;;;12.97;100.00;63335.22;5028552;28;20214;-74
2023/05/04 10:28:52;;;;;;;8.50;7.65;;;;;;;13.09;100.00;63348.22;5010481;28;20213;-75
2023/05/04 10:31:20;;;;;;;8.05;7.25;;;;;;;13.16;100.00;63354.94;5025477;28;20282;-74
2023/05/04 10:33:47;;;;;;;11.50;9.05;;;;;;;13.17;100.00;63356.50;5026590;28;20202;-75
2023/05/04 10:36:14;;;;;;;10.70;8.63;;;;;;;13.23;100.00;63362.22;5025433;28;20235;-75
2023/05/04 10:38:41;;;;;;;12.35;8.57;;;;;;;13.15;100.00;63353.91;5025354;28;20226;-75
2023/05/04 10:41:15;;;;;;;11.40;8.15;;;;;;;13.14;100.00;63352.88;5025065;28;20290;-75
2023/05/04 10:43:47;;;;;;;8.68;7.78;;;;;;;13.20;100.00;63362.16;5026565;28;20258;-75
2023/05/04 10:46:18;;;;;;;9.85;8.48;;;;;;;13.25;100.00;63367.38;5024969;28;20368;-75
2023/05/04 10:48:45;;;;;;;12.65;9.65;;;;;;;13.24;100.00;63363.75;5010502;28;20211;-75
2023/05/04 10:51:19;;;;;;;11.85;9.30;;;;;;;13.38;100.00;63380.84;5005906;28;20225;-75
2023/05/04 10:53:47;;;;;;;12.35;9.45;;;;;;;13.34;100.00;63378.75;5005137;28;20206;-74
2023/05/04 10:56:24;;;;;;;12.27;9.40;;;;;;;13.19;100.00;63358.06;5004747;28;20278;-76
2023/05/04 10:58:53;;;;;;;13.32;10.30;;;;;;;12.95;100.00;63333.66;5006121;28;20199;-76
2023/05/04 11:01:20;;;;;;;10.52;9.18;;;;;;;13.00;100.00;63338.84;5005291;28;20242;-75
2023/05/04 11:03:48;;;;;;;12.02;9.20;;;;;;;13.22;100.00;63366.81;5004921;28;20198;-74
2023/05/04 11:06:17;;;;;;;12.77;10.30;;;;;;;13.02;100.00;63343.50;5005906;28;20226;-75
2023/05/04 11:08:45;;;;;;;14.00;11.38;;;;;;;12.73;100.00;63310.84;5004826;28;20204;-76
2023/05/04 11:11:12;;;;;;;15.63;9.93;;;;;;;12.59;100.00;63301.44;5004428;28;20262;-74
2023/05/04 11:13:45;;;;;;;13.50;11.20;;;;;;;12.52;100.00;63286.53;5005761;28;20207;-75
2023/05/04 11:16:13;;;;;;;15.07;10.88;;;;;;;12.28;100.00;63267.28;5005236;28;20578;-73
2023/05/04 11:18:41;;;;;;;12.52;10.18;;;;;;;11.99;100.00;63236.69;5010920;28;20222;-74
2023/05/04 11:21:09;;;;;;;13.43;10.75;;;;;;;11.76;100.00;63215.41;5005613;28;20242;-74
2023/05/04 11:23:38;;;;;;;16.25;10.82;;;;;;;11.72;100.00;63209.22;5007119;28;20199;-74
2023/05/04 11:26:07;;;;;;;12.63;10.38;;;;;;;11.67;100.00;63200.97;5008090;28;20206;-74